sensor_id;sensor_type;location;lat;lon;timestamp;P1;durP1;ratioP1;P2;durP2;ratioP2
38529;SDS011;24301;54.332;48.386;2022-11-20T00:01:21;8.67;;;5.07;;
38529;SDS011;24301;54.332;48.386;2022-11-20T00:03:48;8.70;;;4.63;;
38529;SDS011;24301;54.332;48.386;2022-11-20T00:06:17;9.97;;;5.20;;
38529;SDS011;24301;54.332;48.386;2022-11-20T00:08:44;9.63;;;5.60;;
38529;SDS011;24301;54.332;48.386;2022-11-20T00:11:20;12.27;;;5.63;;
38529;SDS011;24301;54.332;48.386;2022-11-20T00:13:48;12.47;;;5.30;;
38529;SDS011;24301;54.332;48.386;2022-11-20T00:16:17;10.93;;;5.93;;
38529;SDS011;24301;54.332;48.386;2022-11-20T00:18:45;9.40;;;5.10;;
38529;SDS011;24301;54.332;48.386;2022-11-20T00:21:18;9.47;;;5.50;;
38529;SDS011;24301;54.332;48.386;2022-11-20T00:23:49;9.30;;;4.73;;
38529;SDS011;24301;54.332;48.386;2022-11-20T00:26:17;8.00;;;4.90;;
38529;SDS011;24301;54.332;48.386;2022-11-20T00:28:48;10.73;;;6.23;;
38529;SDS011;24301;54.332;48.386;2022-11-20T00:31:16;7.70;;;4.67;;
38529;SDS011;24301;54.332;48.386;2022-11-20T00:33:43;9.60;;;5.03;;
38529;SDS011;24301;54.332;48.386;2022-11-20T00:36:10;10.80;;;5.87;;
38529;SDS011;24301;54.332;48.386;2022-11-20T00:38:43;8.82;;;5.45;;
38529;SDS011;24301;54.332;48.386;2022-11-20T00:41:10;10.43;;;5.50;;
38529;SDS011;24301;54.332;48.386;2022-11-20T00:43:38;9.53;;;5.67;;
38529;SDS011;24301;54.332;48.386;2022-11-20T00:46:05;9.97;;;5.50;;
38529;SDS011;24301;54.332;48.386;2022-11-20T00:48:33;9.23;;;5.37;;
38529;SDS011;24301;54.332;48.386;2022-11-20T00:50:59;10.93;;;5.73;;
38529;SDS011;24301;54.332;48.386;2022-11-20T00:53:25;9.77;;;5.90;;
38529;SDS011;24301;54.332;48.386;2022-11-20T00:55:59;10.47;;;5.97;;
38529;SDS011;24301;54.332;48.386;2022-11-20T00:58:28;12.30;;;6.40;;
38529;SDS011;24301;54.332;48.386;2022-11-20T01:01:02;10.00;;;6.03;;
38529;SDS011;24301;54.332;48.386;2022-11-20T01:03:37;11.57;;;5.83;;
38529;SDS011;24301;54.332;48.386;2022-11-20T01:06:09;11.10;;;5.00;;
38529;SDS011;24301;54.332;48.386;2022-11-20T01:08:38;10.30;;;6.05;;
38529;SDS011;24301;54.332;48.386;2022-11-20T01:11:05;11.37;;;5.20;;
38529;SDS011;24301;54.332;48.386;2022-11-20T01:13:33;12.50;;;5.73;;
38529;SDS011;24301;54.332;48.386;2022-11-20T01:16:06;9.80;;;5.50;;
38529;SDS011;24301;54.332;48.386;2022-11-20T01:18:33;9.57;;;5.33;;
38529;SDS011;24301;54.332;48.386;2022-11-20T01:21:00;14.43;;;5.30;;
38529;SDS011;24301;54.332;48.386;2022-11-20T01:23:31;14.63;;;6.00;;
38529;SDS011;24301;54.332;48.386;2022-11-20T01:25:59;9.17;;;4.87;;
38529;SDS011;24301;54.332;48.386;2022-11-20T01:28:27;12.37;;;5.77;;
38529;SDS011;24301;54.332;48.386;2022-11-20T01:30:54;11.93;;;5.97;;
38529;SDS011;24301;54.332;48.386;2022-11-20T01:33:20;10.73;;;5.50;;
38529;SDS011;24301;54.332;48.386;2022-11-20T01:35:45;8.77;;;4.83;;
38529;SDS011;24301;54.332;48.386;2022-11-20T01:38:11;11.67;;;5.03;;
38529;SDS011;24301;54.332;48.386;2022-11-20T01:40:37;12.00;;;5.40;;
38529;SDS011;24301;54.332;48.386;2022-11-20T01:43:12;11.13;;;6.23;;
38529;SDS011;24301;54.332;48.386;2022-11-20T01:48:46;10.40;;;5.45;;
38529;SDS011;24301;54.332;48.386;2022-11-20T01:51:30;8.33;;;4.97;;
38529;SDS011;24301;54.332;48.386;2022-11-20T01:54:01;8.80;;;5.57;;
38529;SDS011;24301;54.332;48.386;2022-11-20T01:56:33;12.37;;;6.43;;
38529;SDS011;24301;54.332;48.386;2022-11-20T01:59:03;12.73;;;5.93;;
38529;SDS011;24301;54.332;48.386;2022-11-20T02:01:33;12.30;;;6.23;;
38529;SDS011;24301;54.332;48.386;2022-11-20T02:03:59;9.60;;;5.43;;
38529;SDS011;24301;54.332;48.386;2022-11-20T02:06:28;9.57;;;5.70;;
38529;SDS011;24301;54.332;48.386;2022-11-20T02:08:57;11.60;;;5.80;;
38529;SDS011;24301;54.332;48.386;2022-11-20T02:11:23;12.00;;;5.97;;
38529;SDS011;24301;54.332;48.386;2022-11-20T02:13:48;12.47;;;5.83;;
38529;SDS011;24301;54.332;48.386;2022-11-20T02:16:17;14.80;;;6.00;;
38529;SDS011;24301;54.332;48.386;2022-11-20T02:18:47;11.57;;;5.57;;
38529;SDS011;24301;54.332;48.386;2022-11-20T02:21:34;10.17;;;6.03;;
38529;SDS011;24301;54.332;48.386;2022-11-20T02:24:02;11.87;;;5.63;;
38529;SDS011;24301;54.332;48.386;2022-11-20T02:27:27;11.07;;;6.07;;
38529;SDS011;24301;54.332;48.386;2022-11-20T02:29:37;14.20;;;6.10;;
38529;SDS011;24301;54.332;48.386;2022-11-20T02:32:17;13.07;;;7.50;;
38529;SDS011;24301;54.332;48.386;2022-11-20T02:34:54;9.80;;;5.93;;
38529;SDS011;24301;54.332;48.386;2022-11-20T02:37:21;12.93;;;5.70;;
38529;SDS011;24301;54.332;48.386;2022-11-20T02:39:47;11.10;;;7.07;;
38529;SDS011;24301;54.332;48.386;2022-11-20T02:42:15;11.37;;;6.27;;
38529;SDS011;24301;54.332;48.386;2022-11-20T02:44:41;10.67;;;6.23;;
38529;SDS011;24301;54.332;48.386;2022-11-20T02:47:09;11.43;;;6.00;;
38529;SDS011;24301;54.332;48.386;2022-11-20T02:49:35;13.57;;;6.83;;
38529;SDS011;24301;54.332;48.386;2022-11-20T02:52:01;12.53;;;6.30;;
38529;SDS011;24301;54.332;48.386;2022-11-20T02:54:27;13.07;;;6.13;;
38529;SDS011;24301;54.332;48.386;2022-11-20T02:56:53;12.83;;;5.97;;
38529;SDS011;24301;54.332;48.386;2022-11-20T02:59:19;12.17;;;6.80;;
38529;SDS011;24301;54.332;48.386;2022-11-20T03:01:45;12.00;;;5.33;;
38529;SDS011;24301;54.332;48.386;2022-11-20T03:04:10;13.50;;;5.83;;
38529;SDS011;24301;54.332;48.386;2022-11-20T03:06:36;12.07;;;6.97;;
38529;SDS011;24301;54.332;48.386;2022-11-20T03:09:02;15.83;;;6.67;;
38529;SDS011;24301;54.332;48.386;2022-11-20T03:11:28;11.23;;;6.10;;
38529;SDS011;24301;54.332;48.386;2022-11-20T03:13:54;10.73;;;6.17;;
38529;SDS011;24301;54.332;48.386;2022-11-20T03:16:21;11.10;;;6.00;;
38529;SDS011;24301;54.332;48.386;2022-11-20T03:18:48;13.23;;;8.23;;
38529;SDS011;24301;54.332;48.386;2022-11-20T03:21:14;16.40;;;7.53;;
38529;SDS011;24301;54.332;48.386;2022-11-20T03:23:41;11.63;;;7.50;;
38529;SDS011;24301;54.332;48.386;2022-11-20T03:26:14;12.27;;;6.53;;
38529;SDS011;24301;54.332;48.386;2022-11-20T03:28:48;10.97;;;5.60;;
38529;SDS011;24301;54.332;48.386;2022-11-20T03:31:29;11.10;;;7.10;;
38529;SDS011;24301;54.332;48.386;2022-11-20T03:33:57;11.67;;;6.27;;
38529;SDS011;24301;54.332;48.386;2022-11-20T03:36:24;12.93;;;6.30;;
38529;SDS011;24301;54.332;48.386;2022-11-20T03:38:52;13.47;;;7.53;;
38529;SDS011;24301;54.332;48.386;2022-11-20T03:41:20;11.77;;;7.33;;
38529;SDS011;24301;54.332;48.386;2022-11-20T03:43:52;11.97;;;7.17;;
38529;SDS011;24301;54.332;48.386;2022-11-20T03:46:22;12.50;;;7.23;;
38529;SDS011;24301;54.332;48.386;2022-11-20T03:48:48;13.07;;;6.83;;
38529;SDS011;24301;54.332;48.386;2022-11-20T03:51:19;15.07;;;7.73;;
38529;SDS011;24301;54.332;48.386;2022-11-20T03:53:46;12.70;;;6.97;;
38529;SDS011;24301;54.332;48.386;2022-11-20T03:56:14;15.07;;;8.07;;
38529;SDS011;24301;54.332;48.386;2022-11-20T03:58:42;12.83;;;7.23;;
38529;SDS011;24301;54.332;48.386;2022-11-20T04:01:12;13.10;;;8.60;;
38529;SDS011;24301;54.332;48.386;2022-11-20T04:03:41;15.63;;;7.63;;
38529;SDS011;24301;54.332;48.386;2022-11-20T04:06:09;14.63;;;7.63;;
38529;SDS011;24301;54.332;48.386;2022-11-20T04:08:37;15.70;;;7.90;;
38529;SDS011;24301;54.332;48.386;2022-11-20T04:11:10;15.73;;;7.23;;
38529;SDS011;24301;54.332;48.386;2022-11-20T04:13:41;15.27;;;8.33;;
38529;SDS011;24301;54.332;48.386;2022-11-20T04:16:08;14.43;;;6.50;;
38529;SDS011;24301;54.332;48.386;2022-11-20T04:18:35;16.07;;;7.43;;
38529;SDS011;24301;54.332;48.386;2022-11-20T04:21:01;15.30;;;7.50;;
38529;SDS011;24301;54.332;48.386;2022-11-20T04:23:28;14.40;;;7.57;;
38529;SDS011;24301;54.332;48.386;2022-11-20T04:25:54;14.37;;;8.00;;
38529;SDS011;24301;54.332;48.386;2022-11-20T04:28:26;12.37;;;7.13;;
38529;SDS011;24301;54.332;48.386;2022-11-20T04:30:52;15.07;;;7.13;;
38529;SDS011;24301;54.332;48.386;2022-11-20T04:33:18;12.47;;;7.57;;
38529;SDS011;24301;54.332;48.386;2022-11-20T04:35:43;14.53;;;6.70;;
38529;SDS011;24301;54.332;48.386;2022-11-20T04:38:16;13.20;;;7.63;;
38529;SDS011;24301;54.332;48.386;2022-11-20T04:40:41;13.13;;;6.80;;
38529;SDS011;24301;54.332;48.386;2022-11-20T04:43:07;14.40;;;6.20;;
38529;SDS011;24301;54.332;48.386;2022-11-20T04:45:33;12.10;;;6.47;;
38529;SDS011;24301;54.332;48.386;2022-11-20T04:47:59;17.13;;;8.37;;
38529;SDS011;24301;54.332;48.386;2022-11-20T04:50:25;14.87;;;7.23;;
38529;SDS011;24301;54.332;48.386;2022-11-20T04:52:51;16.57;;;7.73;;
38529;SDS011;24301;54.332;48.386;2022-11-20T04:55:16;15.53;;;7.53;;
38529;SDS011;24301;54.332;48.386;2022-11-20T04:57:42;11.27;;;5.70;;
38529;SDS011;24301;54.332;48.386;2022-11-20T05:00:08;13.83;;;6.47;;
38529;SDS011;24301;54.332;48.386;2022-11-20T05:02:35;15.40;;;7.07;;
38529;SDS011;24301;54.332;48.386;2022-11-20T05:05:00;11.80;;;6.07;;
38529;SDS011;24301;54.332;48.386;2022-11-20T05:07:28;12.73;;;6.70;;
38529;SDS011;24301;54.332;48.386;2022-11-20T05:09:56;14.87;;;7.00;;
38529;SDS011;24301;54.332;48.386;2022-11-20T05:12:25;11.87;;;6.67;;
38529;SDS011;24301;54.332;48.386;2022-11-20T05:14:51;13.80;;;6.97;;
38529;SDS011;24301;54.332;48.386;2022-11-20T05:17:16;14.90;;;6.47;;
38529;SDS011;24301;54.332;48.386;2022-11-20T05:19:42;14.03;;;7.47;;
38529;SDS011;24301;54.332;48.386;2022-11-20T05:22:08;13.60;;;6.53;;
38529;SDS011;24301;54.332;48.386;2022-11-20T05:24:34;15.40;;;7.13;;
38529;SDS011;24301;54.332;48.386;2022-11-20T05:27:00;17.70;;;7.97;;
38529;SDS011;24301;54.332;48.386;2022-11-20T05:29:26;12.80;;;6.77;;
38529;SDS011;24301;54.332;48.386;2022-11-20T05:31:51;14.27;;;7.30;;
38529;SDS011;24301;54.332;48.386;2022-11-20T05:34:17;12.60;;;6.70;;
38529;SDS011;24301;54.332;48.386;2022-11-20T05:36:43;12.70;;;5.70;;
38529;SDS011;24301;54.332;48.386;2022-11-20T05:39:09;14.37;;;6.40;;
38529;SDS011;24301;54.332;48.386;2022-11-20T05:41:35;13.13;;;6.90;;
38529;SDS011;24301;54.332;48.386;2022-11-20T05:44:01;14.33;;;8.03;;
38529;SDS011;24301;54.332;48.386;2022-11-20T05:46:27;13.13;;;7.57;;
38529;SDS011;24301;54.332;48.386;2022-11-20T05:48:53;12.37;;;6.90;;
38529;SDS011;24301;54.332;48.386;2022-11-20T05:51:19;13.70;;;6.97;;
38529;SDS011;24301;54.332;48.386;2022-11-20T05:53:45;12.53;;;6.30;;
38529;SDS011;24301;54.332;48.386;2022-11-20T05:56:13;14.57;;;7.37;;
38529;SDS011;24301;54.332;48.386;2022-11-20T05:58:40;16.67;;;7.33;;
38529;SDS011;24301;54.332;48.386;2022-11-20T06:01:11;13.60;;;7.30;;
38529;SDS011;24301;54.332;48.386;2022-11-20T06:03:37;17.70;;;8.47;;
38529;SDS011;24301;54.332;48.386;2022-11-20T06:06:04;13.33;;;7.00;;
38529;SDS011;24301;54.332;48.386;2022-11-20T06:08:31;19.03;;;8.47;;
38529;SDS011;24301;54.332;48.386;2022-11-20T06:10:57;14.53;;;7.43;;
38529;SDS011;24301;54.332;48.386;2022-11-20T06:13:24;16.87;;;7.30;;
38529;SDS011;24301;54.332;48.386;2022-11-20T06:15:50;15.10;;;7.40;;
38529;SDS011;24301;54.332;48.386;2022-11-20T06:18:16;17.97;;;8.27;;
38529;SDS011;24301;54.332;48.386;2022-11-20T06:20:43;15.50;;;7.50;;
38529;SDS011;24301;54.332;48.386;2022-11-20T06:23:09;17.87;;;7.97;;
38529;SDS011;24301;54.332;48.386;2022-11-20T06:25:38;14.33;;;7.57;;
38529;SDS011;24301;54.332;48.386;2022-11-20T06:28:06;17.40;;;8.13;;
38529;SDS011;24301;54.332;48.386;2022-11-20T06:30:33;16.83;;;7.87;;
38529;SDS011;24301;54.332;48.386;2022-11-20T06:32:59;14.10;;;7.67;;
38529;SDS011;24301;54.332;48.386;2022-11-20T06:35:24;14.00;;;7.00;;
38529;SDS011;24301;54.332;48.386;2022-11-20T06:37:50;17.93;;;8.63;;
38529;SDS011;24301;54.332;48.386;2022-11-20T06:40:16;14.23;;;7.97;;
38529;SDS011;24301;54.332;48.386;2022-11-20T06:42:54;15.80;;;7.37;;
38529;SDS011;24301;54.332;48.386;2022-11-20T06:45:21;14.80;;;7.97;;
38529;SDS011;24301;54.332;48.386;2022-11-20T06:47:46;17.00;;;8.50;;
38529;SDS011;24301;54.332;48.386;2022-11-20T06:50:12;17.17;;;8.57;;
38529;SDS011;24301;54.332;48.386;2022-11-20T06:52:38;17.13;;;8.77;;
38529;SDS011;24301;54.332;48.386;2022-11-20T06:55:04;18.50;;;9.97;;
38529;SDS011;24301;54.332;48.386;2022-11-20T06:57:31;13.67;;;7.67;;
38529;SDS011;24301;54.332;48.386;2022-11-20T06:59:57;17.53;;;7.70;;
38529;SDS011;24301;54.332;48.386;2022-11-20T07:02:23;15.43;;;7.93;;
38529;SDS011;24301;54.332;48.386;2022-11-20T07:04:49;18.60;;;9.33;;
38529;SDS011;24301;54.332;48.386;2022-11-20T07:07:15;16.40;;;8.90;;
38529;SDS011;24301;54.332;48.386;2022-11-20T07:09:41;17.43;;;8.60;;
38529;SDS011;24301;54.332;48.386;2022-11-20T07:12:07;18.33;;;8.83;;
38529;SDS011;24301;54.332;48.386;2022-11-20T07:14:33;17.00;;;8.47;;
38529;SDS011;24301;54.332;48.386;2022-11-20T07:16:59;20.43;;;8.70;;
38529;SDS011;24301;54.332;48.386;2022-11-20T07:19:25;18.73;;;7.87;;
38529;SDS011;24301;54.332;48.386;2022-11-20T07:21:51;23.83;;;9.10;;
38529;SDS011;24301;54.332;48.386;2022-11-20T07:24:17;12.93;;;7.27;;
38529;SDS011;24301;54.332;48.386;2022-11-20T07:26:45;14.87;;;9.07;;
38529;SDS011;24301;54.332;48.386;2022-11-20T07:29:12;17.50;;;9.33;;
38529;SDS011;24301;54.332;48.386;2022-11-20T07:31:51;14.83;;;7.83;;
38529;SDS011;24301;54.332;48.386;2022-11-20T07:34:17;17.57;;;8.27;;
38529;SDS011;24301;54.332;48.386;2022-11-20T07:36:42;18.87;;;10.03;;
38529;SDS011;24301;54.332;48.386;2022-11-20T07:39:08;15.53;;;8.77;;
38529;SDS011;24301;54.332;48.386;2022-11-20T07:41:34;17.03;;;8.67;;
38529;SDS011;24301;54.332;48.386;2022-11-20T07:44:00;16.50;;;9.00;;
38529;SDS011;24301;54.332;48.386;2022-11-20T07:46:26;22.10;;;8.93;;
38529;SDS011;24301;54.332;48.386;2022-11-20T07:48:58;17.67;;;9.70;;
38529;SDS011;24301;54.332;48.386;2022-11-20T07:51:24;15.57;;;8.60;;
38529;SDS011;24301;54.332;48.386;2022-11-20T07:53:54;16.50;;;8.30;;
38529;SDS011;24301;54.332;48.386;2022-11-20T07:56:20;17.37;;;9.13;;
38529;SDS011;24301;54.332;48.386;2022-11-20T07:58:46;20.87;;;10.60;;
38529;SDS011;24301;54.332;48.386;2022-11-20T08:01:12;15.43;;;8.47;;
38529;SDS011;24301;54.332;48.386;2022-11-20T08:03:38;19.07;;;9.47;;
38529;SDS011;24301;54.332;48.386;2022-11-20T08:06:04;21.10;;;9.20;;
38529;SDS011;24301;54.332;48.386;2022-11-20T08:08:30;16.57;;;9.67;;
38529;SDS011;24301;54.332;48.386;2022-11-20T08:10:57;19.30;;;9.60;;
38529;SDS011;24301;54.332;48.386;2022-11-20T08:13:41;14.63;;;7.87;;
38529;SDS011;24301;54.332;48.386;2022-11-20T08:16:26;16.70;;;8.50;;
38529;SDS011;24301;54.332;48.386;2022-11-20T08:18:52;15.07;;;8.17;;
38529;SDS011;24301;54.332;48.386;2022-11-20T08:21:17;20.03;;;10.70;;
38529;SDS011;24301;54.332;48.386;2022-11-20T08:23:43;18.43;;;9.30;;
38529;SDS011;24301;54.332;48.386;2022-11-20T08:26:09;19.00;;;9.60;;
38529;SDS011;24301;54.332;48.386;2022-11-20T08:28:35;23.57;;;10.37;;
38529;SDS011;24301;54.332;48.386;2022-11-20T08:31:01;18.03;;;9.83;;
38529;SDS011;24301;54.332;48.386;2022-11-20T08:33:28;19.83;;;9.87;;
38529;SDS011;24301;54.332;48.386;2022-11-20T08:35:59;18.60;;;10.13;;
38529;SDS011;24301;54.332;48.386;2022-11-20T08:38:26;16.47;;;8.73;;
38529;SDS011;24301;54.332;48.386;2022-11-20T08:40:52;17.43;;;9.97;;
38529;SDS011;24301;54.332;48.386;2022-11-20T08:43:40;22.07;;;10.30;;
38529;SDS011;24301;54.332;48.386;2022-11-20T08:46:06;20.00;;;9.17;;
38529;SDS011;24301;54.332;48.386;2022-11-20T08:48:32;20.60;;;9.90;;
38529;SDS011;24301;54.332;48.386;2022-11-20T08:50:58;20.27;;;10.07;;
38529;SDS011;24301;54.332;48.386;2022-11-20T08:53:25;20.90;;;9.27;;
38529;SDS011;24301;54.332;48.386;2022-11-20T08:55:51;22.73;;;10.40;;
38529;SDS011;24301;54.332;48.386;2022-11-20T08:58:17;21.27;;;10.20;;
38529;SDS011;24301;54.332;48.386;2022-11-20T09:00:43;17.70;;;9.27;;
38529;SDS011;24301;54.332;48.386;2022-11-20T09:03:09;18.73;;;9.80;;
38529;SDS011;24301;54.332;48.386;2022-11-20T09:05:35;17.63;;;8.90;;
38529;SDS011;24301;54.332;48.386;2022-11-20T09:08:03;19.53;;;9.20;;
38529;SDS011;24301;54.332;48.386;2022-11-20T09:10:32;19.53;;;10.53;;
38529;SDS011;24301;54.332;48.386;2022-11-20T09:12:58;21.80;;;9.87;;
38529;SDS011;24301;54.332;48.386;2022-11-20T09:15:24;19.53;;;9.63;;
38529;SDS011;24301;54.332;48.386;2022-11-20T09:17:55;27.13;;;12.37;;
38529;SDS011;24301;54.332;48.386;2022-11-20T09:20:26;15.27;;;9.07;;
38529;SDS011;24301;54.332;48.386;2022-11-20T09:22:54;17.63;;;9.13;;
38529;SDS011;24301;54.332;48.386;2022-11-20T09:25:21;23.83;;;10.27;;
38529;SDS011;24301;54.332;48.386;2022-11-20T09:27:59;23.33;;;11.20;;
38529;SDS011;24301;54.332;48.386;2022-11-20T09:30:33;19.00;;;10.07;;
38529;SDS011;24301;54.332;48.386;2022-11-20T09:32:59;20.43;;;10.70;;
38529;SDS011;24301;54.332;48.386;2022-11-20T09:35:25;22.57;;;11.13;;
38529;SDS011;24301;54.332;48.386;2022-11-20T09:37:51;21.83;;;10.53;;
38529;SDS011;24301;54.332;48.386;2022-11-20T09:40:19;21.07;;;10.53;;
38529;SDS011;24301;54.332;48.386;2022-11-20T09:42:48;16.70;;;9.70;;
38529;SDS011;24301;54.332;48.386;2022-11-20T09:56:36;17.23;;;9.50;;
38529;SDS011;24301;54.332;48.386;2022-11-20T09:59:06;22.47;;;10.53;;
38529;SDS011;24301;54.332;48.386;2022-11-20T10:01:39;22.52;;;11.05;;
38529;SDS011;24301;54.332;48.386;2022-11-20T10:04:17;22.27;;;10.57;;
38529;SDS011;24301;54.332;48.386;2022-11-20T10:09:34;18.30;;;10.60;;
38529;SDS011;24301;54.332;48.386;2022-11-20T10:17:47;23.63;;;10.37;;
38529;SDS011;24301;54.332;48.386;2022-11-20T10:25:46;21.97;;;12.43;;
38529;SDS011;24301;54.332;48.386;2022-11-20T10:31:14;27.67;;;12.03;;
38529;SDS011;24301;54.332;48.386;2022-11-20T10:33:51;21.93;;;11.23;;
38529;SDS011;24301;54.332;48.386;2022-11-20T10:36:26;25.87;;;12.03;;
38529;SDS011;24301;54.332;48.386;2022-11-20T10:41:49;25.13;;;11.57;;
38529;SDS011;24301;54.332;48.386;2022-11-20T10:44:19;22.17;;;11.13;;
38529;SDS011;24301;54.332;48.386;2022-11-20T10:47:11;25.13;;;9.97;;
38529;SDS011;24301;54.332;48.386;2022-11-20T10:49:43;20.77;;;11.00;;
38529;SDS011;24301;54.332;48.386;2022-11-20T10:52:21;30.93;;;12.03;;
38529;SDS011;24301;54.332;48.386;2022-11-20T11:00:46;24.40;;;13.73;;
38529;SDS011;24301;54.332;48.386;2022-11-20T11:03:20;24.03;;;11.97;;
38529;SDS011;24301;54.332;48.386;2022-11-20T11:05:54;22.37;;;11.60;;
38529;SDS011;24301;54.332;48.386;2022-11-20T11:08:41;23.33;;;11.57;;
38529;SDS011;24301;54.332;48.386;2022-11-20T11:11:31;26.37;;;12.60;;
38529;SDS011;24301;54.332;48.386;2022-11-20T11:14:07;25.33;;;14.00;;
38529;SDS011;24301;54.332;48.386;2022-11-20T11:16:35;24.90;;;10.77;;
38529;SDS011;24301;54.332;48.386;2022-11-20T11:19:14;19.13;;;11.47;;
38529;SDS011;24301;54.332;48.386;2022-11-20T11:21:45;24.53;;;11.40;;
38529;SDS011;24301;54.332;48.386;2022-11-20T11:24:19;24.50;;;12.87;;
38529;SDS011;24301;54.332;48.386;2022-11-20T11:26:59;27.57;;;14.53;;
38529;SDS011;24301;54.332;48.386;2022-11-20T11:29:35;27.60;;;12.93;;
38529;SDS011;24301;54.332;48.386;2022-11-20T11:34:37;32.63;;;13.73;;
38529;SDS011;24301;54.332;48.386;2022-11-20T11:37:04;25.63;;;12.37;;
38529;SDS011;24301;54.332;48.386;2022-11-20T11:39:36;27.53;;;12.00;;
38529;SDS011;24301;54.332;48.386;2022-11-20T11:42:32;26.03;;;10.97;;
38529;SDS011;24301;54.332;48.386;2022-11-20T11:44:59;24.33;;;12.67;;
38529;SDS011;24301;54.332;48.386;2022-11-20T11:50:07;24.17;;;12.73;;
38529;SDS011;24301;54.332;48.386;2022-11-20T12:03:49;24.77;;;12.70;;
38529;SDS011;24301;54.332;48.386;2022-11-20T12:06:26;25.53;;;12.03;;
38529;SDS011;24301;54.332;48.386;2022-11-20T12:08:59;29.43;;;12.80;;
38529;SDS011;24301;54.332;48.386;2022-11-20T12:11:34;27.30;;;14.83;;
38529;SDS011;24301;54.332;48.386;2022-11-20T12:14:19;28.60;;;13.47;;
38529;SDS011;24301;54.332;48.386;2022-11-20T12:16:52;27.47;;;14.53;;
38529;SDS011;24301;54.332;48.386;2022-11-20T12:19:20;29.80;;;13.60;;
38529;SDS011;24301;54.332;48.386;2022-11-20T12:30:27;31.90;;;13.60;;
38529;SDS011;24301;54.332;48.386;2022-11-20T12:41:19;29.33;;;13.77;;
38529;SDS011;24301;54.332;48.386;2022-11-20T12:52:57;27.63;;;13.67;;
38529;SDS011;24301;54.332;48.386;2022-11-20T12:58:15;27.77;;;14.50;;
38529;SDS011;24301;54.332;48.386;2022-11-20T13:06:54;32.63;;;16.70;;
38529;SDS011;24301;54.332;48.386;2022-11-20T13:09:20;30.77;;;14.17;;
38529;SDS011;24301;54.332;48.386;2022-11-20T13:11:57;30.13;;;13.77;;
38529;SDS011;24301;54.332;48.386;2022-11-20T13:19:54;30.60;;;15.30;;
38529;SDS011;24301;54.332;48.386;2022-11-20T13:22:26;29.97;;;13.80;;
38529;SDS011;24301;54.332;48.386;2022-11-20T13:24:53;32.43;;;15.30;;
38529;SDS011;24301;54.332;48.386;2022-11-20T13:27:23;32.30;;;15.50;;
38529;SDS011;24301;54.332;48.386;2022-11-20T13:30:11;33.60;;;15.87;;
38529;SDS011;24301;54.332;48.386;2022-11-20T13:38:12;31.33;;;17.50;;
38529;SDS011;24301;54.332;48.386;2022-11-20T13:40:50;37.50;;;17.57;;
38529;SDS011;24301;54.332;48.386;2022-11-20T13:45:55;31.83;;;15.23;;
38529;SDS011;24301;54.332;48.386;2022-11-20T13:48:24;31.80;;;15.07;;
38529;SDS011;24301;54.332;48.386;2022-11-20T13:53:42;35.23;;;14.70;;
38529;SDS011;24301;54.332;48.386;2022-11-20T13:56:16;31.57;;;15.20;;
38529;SDS011;24301;54.332;48.386;2022-11-20T13:59:17;34.37;;;17.23;;
38529;SDS011;24301;54.332;48.386;2022-11-20T14:02:14;34.20;;;16.30;;
38529;SDS011;24301;54.332;48.386;2022-11-20T14:04:46;35.03;;;15.13;;
38529;SDS011;24301;54.332;48.386;2022-11-20T14:07:18;31.73;;;14.03;;
38529;SDS011;24301;54.332;48.386;2022-11-20T14:09:51;32.70;;;14.80;;
38529;SDS011;24301;54.332;48.386;2022-11-20T14:12:29;33.63;;;13.80;;
38529;SDS011;24301;54.332;48.386;2022-11-20T14:14:57;32.10;;;16.10;;
38529;SDS011;24301;54.332;48.386;2022-11-20T14:17:29;29.10;;;12.70;;
38529;SDS011;24301;54.332;48.386;2022-11-20T14:20:06;38.87;;;15.47;;
38529;SDS011;24301;54.332;48.386;2022-11-20T14:22:39;34.10;;;15.33;;
38529;SDS011;24301;54.332;48.386;2022-11-20T14:25:18;46.93;;;20.93;;
38529;SDS011;24301;54.332;48.386;2022-11-20T14:28:00;35.90;;;16.43;;
38529;SDS011;24301;54.332;48.386;2022-11-20T14:30:28;38.77;;;18.37;;
38529;SDS011;24301;54.332;48.386;2022-11-20T14:33:03;35.03;;;16.77;;
38529;SDS011;24301;54.332;48.386;2022-11-20T14:35:31;35.70;;;17.37;;
38529;SDS011;24301;54.332;48.386;2022-11-20T14:38:02;35.07;;;16.07;;
38529;SDS011;24301;54.332;48.386;2022-11-20T14:40:35;33.50;;;16.90;;
38529;SDS011;24301;54.332;48.386;2022-11-20T14:43:02;30.03;;;14.80;;
38529;SDS011;24301;54.332;48.386;2022-11-20T14:46:03;34.33;;;15.13;;
38529;SDS011;24301;54.332;48.386;2022-11-20T14:48:33;33.97;;;15.53;;
38529;SDS011;24301;54.332;48.386;2022-11-20T14:51:30;34.03;;;15.20;;
38529;SDS011;24301;54.332;48.386;2022-11-20T14:54:09;37.20;;;15.13;;
38529;SDS011;24301;54.332;48.386;2022-11-20T14:56:37;34.17;;;15.00;;
38529;SDS011;24301;54.332;48.386;2022-11-20T14:59:03;42.97;;;17.70;;
38529;SDS011;24301;54.332;48.386;2022-11-20T15:01:30;36.67;;;15.97;;
38529;SDS011;24301;54.332;48.386;2022-11-20T15:04:05;39.17;;;16.27;;
38529;SDS011;24301;54.332;48.386;2022-11-20T15:06:33;39.03;;;15.73;;
38529;SDS011;24301;54.332;48.386;2022-11-20T15:09:05;41.40;;;13.83;;
38529;SDS011;24301;54.332;48.386;2022-11-20T15:11:39;37.60;;;15.47;;
38529;SDS011;24301;54.332;48.386;2022-11-20T15:14:23;31.45;;;13.48;;
38529;SDS011;24301;54.332;48.386;2022-11-20T15:16:50;32.60;;;15.33;;
38529;SDS011;24301;54.332;48.386;2022-11-20T15:19:18;48.77;;;17.43;;
38529;SDS011;24301;54.332;48.386;2022-11-20T15:21:46;31.77;;;15.03;;
38529;SDS011;24301;54.332;48.386;2022-11-20T15:24:13;33.60;;;15.87;;
38529;SDS011;24301;54.332;48.386;2022-11-20T15:26:39;30.37;;;15.47;;
38529;SDS011;24301;54.332;48.386;2022-11-20T15:29:08;35.87;;;16.93;;
38529;SDS011;24301;54.332;48.386;2022-11-20T15:31:36;39.50;;;17.23;;
38529;SDS011;24301;54.332;48.386;2022-11-20T15:34:04;37.63;;;16.70;;
38529;SDS011;24301;54.332;48.386;2022-11-20T15:36:35;37.10;;;17.27;;
38529;SDS011;24301;54.332;48.386;2022-11-20T15:39:01;35.90;;;16.10;;
38529;SDS011;24301;54.332;48.386;2022-11-20T15:41:27;35.50;;;16.63;;
38529;SDS011;24301;54.332;48.386;2022-11-20T15:43:53;44.53;;;19.30;;
38529;SDS011;24301;54.332;48.386;2022-11-20T15:46:23;62.80;;;17.37;;
38529;SDS011;24301;54.332;48.386;2022-11-20T15:48:54;31.03;;;14.70;;
38529;SDS011;24301;54.332;48.386;2022-11-20T15:51:25;34.97;;;15.90;;
38529;SDS011;24301;54.332;48.386;2022-11-20T15:53:54;42.10;;;16.87;;
38529;SDS011;24301;54.332;48.386;2022-11-20T15:56:20;44.73;;;15.73;;
38529;SDS011;24301;54.332;48.386;2022-11-20T15:58:47;58.03;;;16.70;;
38529;SDS011;24301;54.332;48.386;2022-11-20T16:01:14;38.13;;;15.50;;
38529;SDS011;24301;54.332;48.386;2022-11-20T16:03:42;49.73;;;17.53;;
38529;SDS011;24301;54.332;48.386;2022-11-20T16:06:08;55.83;;;16.90;;
38529;SDS011;24301;54.332;48.386;2022-11-20T16:08:34;50.63;;;17.10;;
38529;SDS011;24301;54.332;48.386;2022-11-20T16:11:13;40.77;;;16.23;;
38529;SDS011;24301;54.332;48.386;2022-11-20T16:13:40;41.47;;;16.37;;
38529;SDS011;24301;54.332;48.386;2022-11-20T16:16:29;44.13;;;16.47;;
38529;SDS011;24301;54.332;48.386;2022-11-20T16:19:00;40.83;;;17.00;;
38529;SDS011;24301;54.332;48.386;2022-11-20T16:21:26;35.20;;;15.17;;